Time;durP1;ratioP1;P1;durP2;ratioP2;P2;SDS_P1;SDS_P2;PMS_P1;PMS_P2;Temp;Humidity;BMP_temperature;BMP_pressure;BME280_temperature;BME280_humidity;BME280_pressure;Samples;Min_cycle;Max_cycle;Signal;HPM_P1;HPM_P2
2021/10/18 00:01:35;;;;;;;27.02;13.90;;;;;;;;;;5083626;28;20327;-82
2021/10/18 00:04:01;;;;;;;27.33;15.27;;;;;;;;;;5083425;28;20147;-82
2021/10/18 00:06:29;;;;;;;24.33;15.00;;;;;;;;;;5084872;28;20083;-82
2021/10/18 00:08:56;;;;;;;24.15;13.88;;;;;;;;;;5083978;28;20370;-82
2021/10/18 00:11:22;;;;;;;27.17;14.52;;;;;;;;;;5083892;28;20112;-83
2021/10/18 00:14:06;;;;;;;29.85;14.73;;;;;;;;;;5084951;28;20206;-84
2021/10/18 00:16:35;;;;;;;30.38;14.90;;;;;;;;;;5083135;28;20105;-83
2021/10/18 00:19:04;;;;;;;28.75;14.82;;;;;;;;;;5100272;28;20064;-82
2021/10/18 00:21:36;;;;;;;24.65;14.65;;;;;;;;;;5100680;28;20313;-82
2021/10/18 00:24:20;;;;;;;22.90;13.70;;;;;;;;;;5085634;28;20436;-83
2021/10/18 00:26:52;;;;;;;25.98;15.25;;;;;;;;;;5101798;28;20074;-82
2021/10/18 00:29:32;;;;;;;27.77;15.02;;;;;;;;;;5101191;28;20053;-82
2021/10/18 00:32:04;;;;;;;32.47;15.55;;;;;;;;;;5101286;28;20060;-82
2021/10/18 00:34:55;;;;;;;29.27;16.50;;;;;;;;;;5093328;28;20329;-83
2021/10/18 00:37:37;;;;;;;29.73;15.60;;;;;;;;;;5101577;28;20311;-83
2021/10/18 00:40:14;;;;;;;34.45;15.52;;;;;;;;;;5103943;28;20056;-83
2021/10/18 00:42:43;;;;;;;30.80;15.88;;;;;;;;;;5095185;28;20069;-82
2021/10/18 00:45:10;;;;;;;35.88;15.82;;;;;;;;;;5108428;28;20173;-82
2021/10/18 00:47:37;;;;;;;26.98;14.80;;;;;;;;;;5079445;28;20052;-82
2021/10/18 00:50:05;;;;;;;28.10;15.73;;;;;;;;;;5096815;28;20048;-83
2021/10/18 00:52:33;;;;;;;29.30;14.60;;;;;;;;;;5097979;28;20048;-82
2021/10/18 00:55:04;;;;;;;25.52;15.48;;;;;;;;;;5097697;28;20059;-83
2021/10/18 00:57:34;;;;;;;31.08;14.68;;;;;;;;;;5078183;28;20060;-83
2021/10/18 01:00:13;;;;;;;29.63;15.93;;;;;;;;;;5078478;28;20337;-82
2021/10/18 01:02:48;;;;;;;29.63;15.02;;;;;;;;;;5078540;28;20393;-83
2021/10/18 01:05:15;;;;;;;27.40;15.10;;;;;;;;;;5083292;28;20049;-83
2021/10/18 01:07:49;;;;;;;25.15;14.63;;;;;;;;;;5081686;28;20440;-82
2021/10/18 01:10:33;;;;;;;25.63;13.63;;;;;;;;;;5083712;28;20286;-83
2021/10/18 01:13:05;;;;;;;24.45;14.45;;;;;;;;;;5082952;28;20060;-83
2021/10/18 01:15:36;;;;;;;22.27;13.38;;;;;;;;;;5082786;28;20086;-83
2021/10/18 01:18:08;;;;;;;26.38;14.75;;;;;;;;;;5082293;28;20287;-83
2021/10/18 01:20:42;;;;;;;28.85;14.98;;;;;;;;;;5079350;28;20463;-83
2021/10/18 01:23:17;;;;;;;29.52;14.32;;;;;;;;;;5083020;28;20096;-83
2021/10/18 01:25:54;;;;;;;28.63;13.30;;;;;;;;;;5083046;28;20060;-82
2021/10/18 01:28:21;;;;;;;25.02;13.45;;;;;;;;;;5084355;28;20305;-82
2021/10/18 01:30:53;;;;;;;26.20;13.13;;;;;;;;;;5082570;28;20048;-82
2021/10/18 01:33:24;;;;;;;28.23;14.60;;;;;;;;;;5085959;28;20096;-82
2021/10/18 01:36:03;;;;;;;28.38;14.70;;;;;;;;;;5095196;28;20292;-82
2021/10/18 01:38:54;;;;;;;26.70;13.60;;;;;;;;;;5093151;28;20134;-81
2021/10/18 01:41:27;;;;;;;23.55;13.50;;;;;;;;;;5085662;28;20436;-82
2021/10/18 01:44:20;;;;;;;27.13;14.60;;;;;;;;;;5085129;28;20116;-82
2021/10/18 01:46:48;;;;;;;25.75;15.05;;;;;;;;;;5083929;28;20136;-82
2021/10/18 01:49:21;;;;;;;27.33;14.40;;;;;;;;;;5094538;28;20040;-82
2021/10/18 01:51:51;;;;;;;26.25;14.20;;;;;;;;;;5096493;28;20041;-82
2021/10/18 01:54:18;;;;;;;22.35;13.98;;;;;;;;;;5091544;28;20052;-82
2021/10/18 01:56:45;;;;;;;31.98;15.90;;;;;;;;;;5094980;28;20474;-82
2021/10/18 01:59:11;;;;;;;30.83;15.18;;;;;;;;;;5109051;28;20095;-82
2021/10/18 02:01:38;;;;;;;28.10;14.05;;;;;;;;;;5097081;28;20040;-82
2021/10/18 02:04:06;;;;;;;26.73;14.85;;;;;;;;;;5098489;28;20040;-82
2021/10/18 02:06:34;;;;;;;23.95;13.23;;;;;;;;;;5106390;28;20048;-82
2021/10/18 02:09:00;;;;;;;25.38;14.68;;;;;;;;;;5105936;28;20052;-82
2021/10/18 02:11:32;;;;;;;32.72;14.25;;;;;;;;;;5087550;28;20056;-82
2021/10/18 02:14:02;;;;;;;30.05;13.45;;;;;;;;;;5106697;28;20066;-82
2021/10/18 02:16:32;;;;;;;25.92;13.65;;;;;;;;;;5106156;28;20055;-82
2021/10/18 02:18:59;;;;;;;23.90;14.63;;;;;;;;;;5105463;28;20063;-82
2021/10/18 02:21:28;;;;;;;32.80;15.65;;;;;;;;;;5105601;28;20067;-83
2021/10/18 02:24:03;;;;;;;28.25;15.00;;;;;;;;;;5087350;28;20056;-82
2021/10/18 02:26:32;;;;;;;24.63;14.93;;;;;;;;;;5094349;28;20063;-82
2021/10/18 02:29:01;;;;;;;26.88;14.50;;;;;;;;;;5096838;28;20584;-82
2021/10/18 02:31:30;;;;;;;28.45;14.27;;;;;;;;;;5092824;28;20048;-81
2021/10/18 02:34:04;;;;;;;29.05;14.73;;;;;;;;;;5105967;28;20056;-81
2021/10/18 02:36:35;;;;;;;27.63;15.30;;;;;;;;;;5105534;28;20117;-84
2021/10/18 02:39:05;;;;;;;23.95;14.43;;;;;;;;;;5088310;28;20158;-82
2021/10/18 02:41:44;;;;;;;30.80;16.48;;;;;;;;;;5105538;28;20066;-81
2021/10/18 02:44:20;;;;;;;24.55;14.57;;;;;;;;;;5088903;28;20113;-83
2021/10/18 02:46:52;;;;;;;26.70;15.52;;;;;;;;;;5088275;28;20059;-81
2021/10/18 02:49:24;;;;;;;27.40;15.48;;;;;;;;;;5104405;28;20151;-81
2021/10/18 02:51:51;;;;;;;36.75;21.27;;;;;;;;;;5104425;28;20431;-81
2021/10/18 02:54:20;;;;;;;30.48;17.75;;;;;;;;;;5084935;28;20132;-81
2021/10/18 02:56:48;;;;;;;41.22;17.80;;;;;;;;;;5082267;28;20463;-81
2021/10/18 02:59:15;;;;;;;32.50;16.75;;;;;;;;;;5082794;28;20056;-82
2021/10/18 03:01:41;;;;;;;32.55;16.95;;;;;;;;;;5082534;28;20080;-82
2021/10/18 03:04:08;;;;;;;34.70;17.00;;;;;;;;;;5082434;28;20055;-82
2021/10/18 03:06:37;;;;;;;32.97;17.23;;;;;;;;;;5081896;28;20048;-82
2021/10/18 03:09:25;;;;;;;30.73;16.83;;;;;;;;;;5081692;28;20313;-82
2021/10/18 03:11:59;;;;;;;33.05;17.90;;;;;;;;;;5080699;28;20114;-83
2021/10/18 03:14:33;;;;;;;27.85;16.42;;;;;;;;;;5081665;28;20294;-83
2021/10/18 03:17:01;;;;;;;29.30;16.77;;;;;;;;;;5080850;28;20052;-82
2021/10/18 03:19:36;;;;;;;32.55;17.27;;;;;;;;;;5080236;28;20059;-83
2021/10/18 03:22:20;;;;;;;;;;;;;;;;;;;;;
2021/10/18 03:24:57;;;;;;;32.95;17.60;;;;;;;;;;5081927;28;20079;-82
2021/10/18 03:27:35;;;;;;;26.73;17.15;;;;;;;;;;5080215;28;20045;-82
2021/10/18 03:30:08;;;;;;;29.60;17.98;;;;;;;;;;5081265;28;20044;-82
2021/10/18 03:32:35;;;;;;;32.47;17.40;;;;;;;;;;5080101;28;20216;-82
2021/10/18 03:35:08;;;;;;;27.63;16.15;;;;;;;;;;5082167;28;20150;-83
2021/10/18 03:37:40;;;;;;;24.30;15.65;;;;;;;;;;5083319;28;20227;-83
2021/10/18 03:40:12;;;;;;;33.20;17.10;;;;;;;;;;5087726;28;20064;-83
2021/10/18 03:42:39;;;;;;;24.98;15.77;;;;;;;;;;5092039;28;20062;-83
2021/10/18 03:45:12;;;;;;;28.33;15.75;;;;;;;;;;5084275;28;20048;-83
2021/10/18 03:47:39;;;;;;;32.03;16.77;;;;;;;;;;5078792;28;20242;-82
2021/10/18 03:50:07;;;;;;;28.83;15.18;;;;;;;;;;5078288;28;20044;-82
2021/10/18 03:52:36;;;;;;;28.15;15.13;;;;;;;;;;5077714;28;20052;-83
2021/10/18 03:55:09;;;;;;;25.88;15.65;;;;;;;;;;5081139;28;20055;-83
2021/10/18 03:57:35;;;;;;;28.48;15.50;;;;;;;;;;5101788;28;20055;-83
2021/10/18 04:00:04;;;;;;;26.35;15.77;;;;;;;;;;5094147;28;20044;-83
2021/10/18 04:02:33;;;;;;;24.42;15.70;;;;;;;;;;5110038;28;20179;-82
2021/10/18 04:05:13;;;;;;;29.70;16.88;;;;;;;;;;5093347;28;20040;-82
2021/10/18 04:07:47;;;;;;;24.58;14.80;;;;;;;;;;5111147;28;20048;-82
2021/10/18 04:10:20;;;;;;;29.85;16.00;;;;;;;;;;5111522;28;20056;-82
2021/10/18 04:12:51;;;;;;;24.23;15.27;;;;;;;;;;5094500;28;20036;-82
2021/10/18 04:15:21;;;;;;;27.35;15.88;;;;;;;;;;5094510;28;20052;-82
2021/10/18 04:17:58;;;;;;;32.70;15.18;;;;;;;;;;5088448;28;20056;-83
2021/10/18 04:20:29;;;;;;;26.73;15.35;;;;;;;;;;5084901;28;20048;-82
2021/10/18 04:23:02;;;;;;;26.20;16.33;;;;;;;;;;5079789;28;20044;-83
2021/10/18 04:25:39;;;;;;;24.60;15.63;;;;;;;;;;5078868;28;20079;-82
2021/10/18 04:28:07;;;;;;;27.63;15.77;;;;;;;;;;5079389;28;20044;-84
2021/10/18 04:30:43;;;;;;;30.98;16.17;;;;;;;;;;5062560;28;20420;-83
2021/10/18 04:33:19;;;;;;;32.60;16.83;;;;;;;;;;5077388;28;20052;-81
2021/10/18 04:35:56;;;;;;;27.83;16.05;;;;;;;;;;5060000;28;20052;-82
2021/10/18 04:38:37;;;;;;;26.85;15.82;;;;;;;;;;5060350;28;20056;-83
2021/10/18 04:41:10;;;;;;;26.95;15.38;;;;;;;;;;5059602;28;20056;-82
2021/10/18 04:43:47;;;;;;;28.25;14.95;;;;;;;;;;5075371;28;20109;-82
2021/10/18 04:46:17;;;;;;;25.25;14.27;;;;;;;;;;5058114;28;20095;-83
2021/10/18 04:48:49;;;;;;;28.27;16.88;;;;;;;;;;5058709;28;20110;-82
2021/10/18 04:51:22;;;;;;;27.85;15.82;;;;;;;;;;5075737;28;20204;-82
2021/10/18 04:54:01;;;;;;;25.08;14.60;;;;;;;;;;5076888;28;20095;-82
2021/10/18 04:56:43;;;;;;;25.83;14.60;;;;;;;;;;5057235;28;20061;-83
2021/10/18 04:59:16;;;;;;;22.98;15.23;;;;;;;;;;5072861;28;20061;-83
2021/10/18 05:01:56;;;;;;;28.67;15.57;;;;;;;;;;5076568;28;20084;-82
2021/10/18 05:04:26;;;;;;;23.63;14.65;;;;;;;;;;5075282;28;20413;-83
2021/10/18 05:07:04;;;;;;;27.35;15.57;;;;;;;;;;5071187;28;20048;-83
2021/10/18 05:09:57;;;;;;;28.13;15.80;;;;;;;;;;5072217;28;20063;-83
2021/10/18 05:12:57;;;;;;;23.85;15.00;;;;;;;;;;5074038;28;20079;-82
2021/10/18 05:15:42;;;;;;;24.77;14.43;;;;;;;;;;5074619;28;20624;-82
2021/10/18 05:18:15;;;;;;;25.92;15.15;;;;;;;;;;5089362;28;20051;-83
2021/10/18 05:21:07;;;;;;;25.95;14.82;;;;;;;;;;5087649;28;20079;-83
2021/10/18 05:23:36;;;;;;;27.33;15.30;;;;;;;;;;5074221;28;20106;-82
2021/10/18 05:26:06;;;;;;;24.38;15.07;;;;;;;;;;5075032;28;20059;-81
2021/10/18 05:28:39;;;;;;;27.88;14.10;;;;;;;;;;5076095;28;20063;-83
2021/10/18 05:31:12;;;;;;;27.73;14.13;;;;;;;;;;5089232;28;20060;-83
2021/10/18 05:33:41;;;;;;;26.23;14.73;;;;;;;;;;5081601;28;20207;-83
2021/10/18 05:36:08;;;;;;;28.33;14.55;;;;;;;;;;5081469;28;20067;-83
2021/10/18 05:38:53;;;;;;;22.23;13.68;;;;;;;;;;5075335;28;20056;-81
2021/10/18 05:41:23;;;;;;;32.40;14.57;;;;;;;;;;5073987;28;20204;-83
2021/10/18 05:44:05;;;;;;;;;;;;;;;;;;;;;
2021/10/18 05:46:33;;;;;;;21.23;14.57;;;;;;;;;;5069908;28;20060;-82
2021/10/18 05:49:06;;;;;;;29.35;14.85;;;;;;;;;;5056619;28;20056;-82
2021/10/18 05:51:36;;;;;;;27.50;14.00;;;;;;;;;;5054576;28;20102;-82
2021/10/18 05:54:20;;;;;;;25.92;14.90;;;;;;;;;;5049842;28;20301;-82
2021/10/18 05:57:27;;;;;;;24.67;14.32;;;;;;;;;;5062735;28;20055;-83
2021/10/18 06:00:20;;;;;;;25.02;14.98;;;;;;;;;;5076718;28;20059;-83
2021/10/18 06:02:53;;;;;;;26.20;14.95;;;;;;;;;;5088625;28;20055;-82
2021/10/18 06:05:23;;;;;;;24.15;14.80;;;;;;;;;;5066542;28;20549;-83
2021/10/18 06:08:05;;;;;;;24.50;14.55;;;;;;;;;;5074366;28;20147;-83
2021/10/18 06:10:55;;;;;;;25.45;14.25;;;;;;;;;;5056843;28;20080;-82
2021/10/18 06:13:30;;;;;;;31.35;14.23;;;;;;;;;;5050493;28;20052;-83
2021/10/18 06:16:13;;;;;;;28.55;14.43;;;;;;;;;;5075227;28;20138;-83
2021/10/18 06:18:47;;;;;;;21.63;14.18;;;;;;;;;;5074999;28;20396;-82
2021/10/18 06:21:26;;;;;;;24.65;14.73;;;;;;;;;;5058285;28;20282;-82
2021/10/18 06:24:05;;;;;;;22.38;14.50;;;;;;;;;;5056067;28;20066;-82
2021/10/18 06:26:41;;;;;;;25.05;14.05;;;;;;;;;;5057238;28;20092;-83
2021/10/18 06:29:26;;;;;;;24.75;15.20;;;;;;;;;;5056740;28;20108;-82
2021/10/18 06:32:07;;;;;;;30.05;14.52;;;;;;;;;;5058125;28;20056;-82
2021/10/18 06:34:56;;;;;;;22.15;14.57;;;;;;;;;;5057821;28;20064;-83
2021/10/18 06:37:38;;;;;;;;;;;;;;;;;;;;;
2021/10/18 06:40:06;;;;;;;25.38;14.80;;;;;;;;;;5104268;28;20079;-82
2021/10/18 06:42:48;;;;;;;23.42;14.25;;;;;;;;;;5090075;28;20369;-83
2021/10/18 06:45:30;;;;;;;22.60;13.98;;;;;;;;;;5055161;28;20559;-83
2021/10/18 06:48:15;;;;;;;;;;;;;;;;;;;;;
2021/10/18 06:51:11;;;;;;;25.30;13.73;;;;;;;;;;5071779;28;20548;-82
2021/10/18 06:53:52;;;;;;;24.88;14.18;;;;;;;;;;5056820;28;20472;-83
2021/10/18 06:56:47;;;;;;;;;;;;;;;;;;;;;
2021/10/18 06:59:51;;;;;;;23.55;14.68;;;;;;;;;;5090209;28;20062;-83
2021/10/18 07:02:35;;;;;;;29.85;14.25;;;;;;;;;;5071993;28;20247;-82
2021/10/18 07:05:15;;;;;;;22.65;14.90;;;;;;;;;;5056104;28;20052;-82
2021/10/18 07:07:55;;;;;;;;;;;;;;;;;;;;;
2021/10/18 07:10:34;;;;;;;29.00;15.07;;;;;;;;;;5080340;28;20049;-82
2021/10/18 07:13:30;;;;;;;22.33;14.10;;;;;;;;;;5072588;28;20421;-83
2021/10/18 07:16:18;;;;;;;26.92;14.60;;;;;;;;;;5072675;28;20139;-83
2021/10/18 07:18:48;;;;;;;28.67;14.02;;;;;;;;;;5056122;28;20060;-83
2021/10/18 07:21:25;;;;;;;25.73;12.82;;;;;;;;;;5055350;28;20048;-83
2021/10/18 07:27:20;;;;;;;23.10;13.18;;;;;;;;;;5073608;28;20094;-82
2021/10/18 07:30:00;;;;;;;23.75;12.88;;;;;;;;;;5056070;28;20076;-83
2021/10/18 07:32:44;;;;;;;20.38;12.13;;;;;;;;;;5061896;28;20044;-84
2021/10/18 07:35:19;;;;;;;20.27;12.15;;;;;;;;;;5075835;28;20080;-83
2021/10/18 07:37:59;;;;;;;20.13;12.30;;;;;;;;;;5057180;28;20251;-82
2021/10/18 07:40:38;;;;;;;17.58;10.82;;;;;;;;;;5053702;28;20053;-82
2021/10/18 07:43:06;;;;;;;20.73;11.65;;;;;;;;;;5052935;28;20070;-83
2021/10/18 07:45:36;;;;;;;22.73;11.18;;;;;;;;;;5057430;28;20449;-83
2021/10/18 07:48:22;;;;;;;;;;;;;;;;;;;;;
2021/10/18 07:51:32;;;;;;;17.80;11.35;;;;;;;;;;5078248;28;20091;-84
2021/10/18 07:54:11;;;;;;;18.33;12.20;;;;;;;;;;5051225;28;20051;-82
2021/10/18 07:56:52;;;;;;;21.00;11.73;;;;;;;;;;5053715;28;20060;-83
2021/10/18 07:59:44;;;;;;;20.13;11.65;;;;;;;;;;5054286;28;20227;-83
2021/10/18 08:02:38;;;;;;;16.98;10.55;;;;;;;;;;5067923;28;20195;-83
2021/10/18 08:05:26;;;;;;;14.60;9.77;;;;;;;;;;5094562;28;20060;-83
2021/10/18 08:08:13;;;;;;;17.15;10.68;;;;;;;;;;5076491;28;20363;-82
2021/10/18 08:11:00;;;;;;;16.65;10.98;;;;;;;;;;5092902;28;20233;-84
2021/10/18 08:13:40;;;;;;;18.13;10.80;;;;;;;;;;5071226;28;20121;-83
2021/10/18 08:16:15;;;;;;;20.58;10.50;;;;;;;;;;5055981;28;20062;-82
2021/10/18 08:18:53;;;;;;;19.23;10.57;;;;;;;;;;5055438;28;20075;-83
2021/10/18 08:21:44;;;;;;;21.15;10.77;;;;;;;;;;5070811;28;20122;-81
2021/10/18 08:24:43;;;;;;;;;;;;;;;;;;;;;
2021/10/18 08:27:24;;;;;;;18.10;10.18;;;;;;;;;;5070369;28;20059;-83
2021/10/18 08:30:39;;;;;;;17.55;10.38;;;;;;;;;;5051772;28;20040;-82
2021/10/18 08:33:57;;;;;;;17.40;9.95;;;;;;;;;;5072060;28;20293;-82
2021/10/18 08:36:54;;;;;;;18.13;9.75;;;;;;;;;;5058831;28;20055;-83
2021/10/18 08:45:44;;;;;;;19.25;10.05;;;;;;;;;;5076999;28;20482;-83
2021/10/18 08:48:36;;;;;;;16.83;9.63;;;;;;;;;;5054792;28;20048;-83
2021/10/18 08:51:24;;;;;;;16.42;10.07;;;;;;;;;;5054129;28;20059;-82
2021/10/18 08:54:03;;;;;;;14.68;9.43;;;;;;;;;;5072417;28;20082;-83
2021/10/18 08:56:58;;;;;;;15.07;9.90;;;;;;;;;;5065315;28;20480;-83
2021/10/18 08:59:42;;;;;;;21.33;10.65;;;;;;;;;;5071169;28;20056;-84
2021/10/18 09:02:43;;;;;;;14.35;9.38;;;;;;;;;;5070664;28;20136;-82
2021/10/18 09:05:26;;;;;;;17.67;10.07;;;;;;;;;;5071003;28;20174;-84
2021/10/18 09:08:11;;;;;;;18.15;9.65;;;;;;;;;;5070015;28;20231;-84
2021/10/18 09:10:59;;;;;;;15.18;10.23;;;;;;;;;;5073179;28;20175;-82
2021/10/18 09:13:26;;;;;;;15.57;9.55;;;;;;;;;;5088607;28;20242;-83
2021/10/18 09:16:11;;;;;;;16.83;9.80;;;;;;;;;;5075639;28;20106;-83
2021/10/18 09:19:15;;;;;;;15.07;9.52;;;;;;;;;;5074464;28;20052;-84
2021/10/18 09:21:42;;;;;;;20.27;10.50;;;;;;;;;;5071389;28;20292;-83
2021/10/18 09:24:35;;;;;;;15.40;9.18;;;;;;;;;;5090924;28;20270;-83
2021/10/18 09:27:23;;;;;;;19.20;9.48;;;;;;;;;;5096275;28;20076;-83
2021/10/18 09:30:14;;;;;;;;;;;;;;;;;;5084267;28;20082;-84
2021/10/18 09:33:00;;;;;;;21.27;10.23;;;;;;;;;;5098326;28;19920;-84
2021/10/18 09:35:57;;;;;;;15.88;9.93;;;;;;;;;;5081627;28;20052;-84
2021/10/18 09:38:30;;;;;;;15.48;9.30;;;;;;;;;;5073584;28;20051;-83
2021/10/18 09:41:24;;;;;;;15.38;9.00;;;;;;;;;;5068726;28;20053;-83
2021/10/18 09:44:41;;;;;;;17.23;8.93;;;;;;;;;;5056288;28;20252;-83
2021/10/18 10:52:50;;;;;;;16.30;8.38;;;;;;;;;;4986273;28;20291;-84
2021/10/18 10:55:23;;;;;;;13.43;8.10;;;;;;;;;;4967984;28;20145;-82
2021/10/18 10:57:52;;;;;;;15.15;8.65;;;;;;;;;;4969516;28;20069;-82
2021/10/18 11:00:37;;;;;;;14.02;7.82;;;;;;;;;;4986684;28;20081;-83
2021/10/18 11:03:36;;;;;;;12.85;8.10;;;;;;;;;;5037600;28;20058;-83
2021/10/18 11:06:04;;;;;;;13.05;7.93;;;;;;;;;;5065847;28;20475;-83
2021/10/18 11:08:38;;;;;;;15.88;9.43;;;;;;;;;;5073197;28;20153;-82
2021/10/18 11:11:19;;;;;;;15.70;8.38;;;;;;;;;;5058355;28;20150;-82
2021/10/18 11:13:49;;;;;;;15.88;8.88;;;;;;;;;;5055232;28;20435;-82
2021/10/18 11:16:17;;;;;;;11.75;8.32;;;;;;;;;;5070369;28;20207;-81
2021/10/18 11:18:54;;;;;;;14.85;8.13;;;;;;;;;;5058427;28;20062;-83
2021/10/18 11:21:22;;;;;;;11.80;7.20;;;;;;;;;;5057313;28;20079;-82
2021/10/18 11:23:53;;;;;;;15.63;7.78;;;;;;;;;;5063183;28;20041;-83
2021/10/18 11:26:20;;;;;;;19.50;6.90;;;;;;;;;;5081361;28;20087;-81
2021/10/18 11:28:50;;;;;;;11.70;7.05;;;;;;;;;;5063723;28;20084;-81
2021/10/18 11:31:17;;;;;;;13.35;8.32;;;;;;;;;;5079492;28;20055;-82
2021/10/18 11:34:08;;;;;;;18.48;7.97;;;;;;;;;;5082385;28;20173;-81
2021/10/18 11:36:35;;;;;;;14.82;8.20;;;;;;;;;;5059246;28;20128;-81
2021/10/18 11:39:08;;;;;;;15.52;8.18;;;;;;;;;;5071326;28;20051;-81
2021/10/18 11:41:58;;;;;;;12.90;7.63;;;;;;;;;;5050711;28;20106;-81
2021/10/18 11:44:43;;;;;;;14.98;8.57;;;;;;;;;;5056481;28;20112;-82
2021/10/18 11:47:21;;;;;;;13.07;7.88;;;;;;;;;;5066786;28;20360;-82
2021/10/18 11:50:03;;;;;;;14.50;7.70;;;;;;;;;;5065248;28;20048;-84
2021/10/18 11:52:30;;;;;;;9.95;7.28;;;;;;;;;;5060849;28;20048;-82
2021/10/18 11:54:57;;;;;;;18.13;7.97;;;;;;;;;;5068419;28;20139;-82
2021/10/18 11:57:25;;;;;;;15.45;8.43;;;;;;;;;;5087239;28;20127;-83
2021/10/18 11:59:52;;;;;;;12.18;8.32;;;;;;;;;;5070775;28;20063;-83
2021/10/18 12:02:24;;;;;;;15.23;8.32;;;;;;;;;;5086617;28;20499;-82
2021/10/18 12:04:58;;;;;;;18.08;8.30;;;;;;;;;;5076684;28;20060;-81
2021/10/18 12:07:37;;;;;;;15.07;8.23;;;;;;;;;;5104028;28;20063;-82
2021/10/18 12:10:22;;;;;;;17.73;8.75;;;;;;;;;;5098363;28;20066;-81
2021/10/18 12:13:08;;;;;;;17.85;10.25;;;;;;;;;;5071176;28;20074;-82
2021/10/18 12:15:43;;;;;;;13.15;8.50;;;;;;;;;;5065963;28;20408;-82
2021/10/18 12:18:13;;;;;;;12.65;8.23;;;;;;;;;;5064556;28;20044;-82
2021/10/18 12:20:44;;;;;;;15.95;8.52;;;;;;;;;;5065589;28;20113;-82
2021/10/18 12:23:19;;;;;;;16.13;8.07;;;;;;;;;;5055003;28;20256;-82
2021/10/18 12:25:57;;;;;;;14.13;8.68;;;;;;;;;;5053196;28;20203;-82
2021/10/18 12:28:24;;;;;;;14.23;8.20;;;;;;;;;;5069943;28;20052;-81
2021/10/18 12:30:50;;;;;;;15.32;8.63;;;;;;;;;;5071159;28;20056;-82
2021/10/18 12:33:20;;;;;;;14.25;8.57;;;;;;;;;;5090310;28;20119;-82
2021/10/18 12:36:02;;;;;;;14.45;8.85;;;;;;;;;;5091182;28;20052;-82
2021/10/18 12:38:30;;;;;;;12.93;8.68;;;;;;;;;;5071781;28;20359;-82
2021/10/18 12:41:07;;;;;;;16.30;8.95;;;;;;;;;;5091567;28;20052;-81
2021/10/18 12:43:35;;;;;;;16.65;9.43;;;;;;;;;;5093843;28;20236;-81
2021/10/18 12:46:27;;;;;;;15.43;9.00;;;;;;;;;;5089493;28;20594;-82
2021/10/18 12:48:57;;;;;;;15.07;8.68;;;;;;;;;;5079649;28;20200;-81
2021/10/18 12:51:34;;;;;;;16.77;8.98;;;;;;;;;;5086990;28;20048;-81
2021/10/18 12:54:20;;;;;;;13.93;7.85;;;;;;;;;;5062200;28;20079;-82
2021/10/18 12:57:07;;;;;;;14.50;9.07;;;;;;;;;;5069059;28;20048;-82
2021/10/18 12:59:38;;;;;;;16.65;9.50;;;;;;;;;;5090554;28;20044;-82
2021/10/18 13:02:23;;;;;;;16.50;9.25;;;;;;;;;;5071698;28;20113;-82
2021/10/18 13:05:01;;;;;;;18.05;9.63;;;;;;;;;;5083966;28;20227;-82
2021/10/18 13:07:35;;;;;;;13.85;8.32;;;;;;;;;;5064841;28;20550;-82
2021/10/18 13:10:05;;;;;;;12.55;7.00;;;;;;;;;;5050629;28;20057;-81
2021/10/18 13:12:32;;;;;;;11.68;7.18;;;;;;;;;;5070031;28;20071;-81
2021/10/18 13:14:59;;;;;;;17.15;8.00;;;;;;;;;;5067841;28;20408;-82
2021/10/18 13:17:25;;;;;;;17.40;7.85;;;;;;;;;;5052480;28;20117;-82
2021/10/18 13:19:53;;;;;;;14.80;8.32;;;;;;;;;;5090131;28;20083;-83
2021/10/18 13:22:36;;;;;;;12.30;7.18;;;;;;;;;;5066422;28;20263;-84
2021/10/18 13:25:10;;;;;;;14.57;8.20;;;;;;;;;;5085794;28;20075;-82
2021/10/18 13:27:38;;;;;;;16.40;7.95;;;;;;;;;;5074867;28;20525;-82
2021/10/18 13:30:06;;;;;;;19.17;8.45;;;;;;;;;;5073784;28;20413;-82
2021/10/18 13:32:44;;;;;;;12.55;6.90;;;;;;;;;;5086582;28;20158;-82
2021/10/18 13:35:11;;;;;;;11.98;6.68;;;;;;;;;;5055538;28;20124;-82
2021/10/18 13:37:38;;;;;;;12.35;6.88;;;;;;;;;;5054308;28;20065;-82
2021/10/18 13:40:10;;;;;;;11.15;5.93;;;;;;;;;;5087078;28;20059;-82
2021/10/18 13:42:41;;;;;;;12.60;6.47;;;;;;;;;;5069979;28;20090;-82
2021/10/18 13:45:11;;;;;;;13.15;6.78;;;;;;;;;;5075233;28;20047;-82
2021/10/18 13:47:38;;;;;;;15.20;6.10;;;;;;;;;;5093549;28;20040;-84
2021/10/18 13:50:05;;;;;;;10.07;5.55;;;;;;;;;;5085659;28;20085;-83
2021/10/18 13:52:35;;;;;;;11.43;5.85;;;;;;;;;;5078069;28;20058;-83
2021/10/18 13:55:06;;;;;;;12.15;6.05;;;;;;;;;;5068238;28;20133;-82
2021/10/18 13:57:59;;;;;;;10.98;5.82;;;;;;;;;;5085374;28;20052;-82
2021/10/18 14:00:26;;;;;;;12.25;6.15;;;;;;;;;;5075041;28;20293;-82
2021/10/18 14:02:53;;;;;;;10.07;5.85;;;;;;;;;;5071619;28;20059;-82
2021/10/18 14:05:23;;;;;;;9.23;4.95;;;;;;;;;;5067884;28;20079;-82
2021/10/18 14:07:50;;;;;;;9.65;6.00;;;;;;;;;;5062007;28;20219;-81
2021/10/18 14:10:17;;;;;;;10.20;5.35;;;;;;;;;;5072563;28;20056;-81
2021/10/18 14:12:47;;;;;;;9.23;5.78;;;;;;;;;;5079108;28;20044;-82
2021/10/18 14:15:14;;;;;;;11.57;4.28;;;;;;;;;;5071489;28;20339;-82
2021/10/18 14:17:41;;;;;;;8.23;4.80;;;;;;;;;;5063792;28;20049;-81
2021/10/18 14:20:12;;;;;;;10.25;5.22;;;;;;;;;;5074401;28;20056;-81
2021/10/18 14:22:39;;;;;;;11.07;5.07;;;;;;;;;;5054926;28;20068;-81
2021/10/18 14:25:06;;;;;;;9.77;4.75;;;;;;;;;;5055174;28;20082;-81
2021/10/18 14:27:33;;;;;;;10.40;4.85;;;;;;;;;;5055192;28;20259;-82
2021/10/18 14:30:01;;;;;;;8.80;4.97;;;;;;;;;;5071105;28;20130;-82
2021/10/18 14:32:27;;;;;;;9.77;4.80;;;;;;;;;;5062109;28;20510;-82
2021/10/18 14:34:54;;;;;;;14.25;4.97;;;;;;;;;;5054133;28;20309;-81
2021/10/18 14:37:21;;;;;;;8.32;4.97;;;;;;;;;;5051207;28;20056;-84
2021/10/18 14:39:51;;;;;;;11.00;4.85;;;;;;;;;;5057653;28;20048;-81
2021/10/18 14:42:18;;;;;;;7.47;4.97;;;;;;;;;;5071500;28;20296;-81
2021/10/18 14:44:45;;;;;;;11.50;4.53;;;;;;;;;;5070679;28;20329;-82
2021/10/18 14:47:13;;;;;;;12.02;4.10;;;;;;;;;;5069451;28;20044;-82
2021/10/18 14:49:40;;;;;;;9.50;4.40;;;;;;;;;;5054783;28;20048;-81
2021/10/18 14:52:09;;;;;;;11.30;5.35;;;;;;;;;;5053687;28;20070;-81
2021/10/18 14:54:36;;;;;;;8.13;4.03;;;;;;;;;;5063709;28;20121;-81
2021/10/18 14:57:03;;;;;;;9.43;5.05;;;;;;;;;;5052402;28;20367;-80
2021/10/18 14:59:30;;;;;;;9.60;5.00;;;;;;;;;;5066509;28;20049;-81
2021/10/18 15:01:57;;;;;;;12.43;5.28;;;;;;;;;;5073089;28;20057;-83
2021/10/18 15:04:24;;;;;;;11.13;6.00;;;;;;;;;;5070626;28;20347;-82
2021/10/18 15:06:52;;;;;;;8.25;4.55;;;;;;;;;;5069948;28;20056;-81
2021/10/18 15:09:21;;;;;;;11.57;5.10;;;;;;;;;;5066362;28;20048;-81
2021/10/18 15:11:51;;;;;;;8.75;4.97;;;;;;;;;;5060052;28;20075;-81
2021/10/18 15:14:18;;;;;;;10.27;4.07;;;;;;;;;;5059071;28;20040;-81
2021/10/18 15:16:45;;;;;;;9.10;5.03;;;;;;;;;;5051021;28;20067;-82
2021/10/18 15:19:14;;;;;;;9.25;4.70;;;;;;;;;;5055812;28;20355;-82
2021/10/18 15:21:41;;;;;;;7.03;4.13;;;;;;;;;;5049124;28;20125;-82
2021/10/18 15:24:11;;;;;;;7.78;3.72;;;;;;;;;;5050692;28;20076;-82
2021/10/18 15:26:38;;;;;;;9.60;4.45;;;;;;;;;;5050340;28;20330;-82
2021/10/18 15:29:04;;;;;;;7.60;4.15;;;;;;;;;;5065216;28;20033;-82
2021/10/18 15:31:31;;;;;;;10.32;4.18;;;;;;;;;;5063271;28;20055;-82
2021/10/18 15:34:00;;;;;;;9.70;3.85;;;;;;;;;;5068505;28;20061;-83
2021/10/18 15:36:31;;;;;;;11.52;4.88;;;;;;;;;;5046622;28;20099;-82
2021/10/18 15:38:57;;;;;;;7.15;4.50;;;;;;;;;;5055597;28;20083;-83
2021/10/18 15:41:28;;;;;;;6.93;3.88;;;;;;;;;;5073798;28;20265;-82
2021/10/18 15:43:55;;;;;;;10.98;4.65;;;;;;;;;;5079917;28;20121;-81
2021/10/18 15:46:21;;;;;;;11.57;4.30;;;;;;;;;;5066846;28;20067;-81
2021/10/18 15:48:48;;;;;;;7.88;4.05;;;;;;;;;;5061558;28;20056;-81
2021/10/18 15:51:24;;;;;;;9.25;3.90;;;;;;;;;;5053244;28;20252;-81
2021/10/18 15:53:51;;;;;;;12.68;4.60;;;;;;;;;;5048418;28;20128;-82
2021/10/18 15:56:19;;;;;;;6.13;4.28;;;;;;;;;;5068053;28;20044;-81
2021/10/18 15:58:52;;;;;;;8.57;4.35;;;;;;;;;;5061931;28;20053;-82
2021/10/18 16:01:19;;;;;;;9.73;4.13;;;;;;;;;;5063232;28;20065;-82
2021/10/18 16:03:46;;;;;;;9.27;4.10;;;;;;;;;;5065050;28;20065;-82
2021/10/18 16:06:16;;;;;;;10.90;4.70;;;;;;;;;;5060410;28;20233;-81
2021/10/18 16:08:43;;;;;;;10.98;4.18;;;;;;;;;;5042950;28;20162;-81
2021/10/18 16:11:10;;;;;;;12.05;4.30;;;;;;;;;;5049242;28;20254;-82
2021/10/18 16:13:40;;;;;;;10.50;4.72;;;;;;;;;;5063985;28;20059;-83
2021/10/18 16:16:07;;;;;;;12.45;5.47;;;;;;;;;;5058947;28;20057;-82
2021/10/18 16:18:34;;;;;;;11.48;4.82;;;;;;;;;;5057894;28;20205;-82
2021/10/18 16:21:08;;;;;;;6.38;4.20;;;;;;;;;;5060648;28;20052;-83
2021/10/18 16:23:35;;;;;;;9.55;4.93;;;;;;;;;;5066458;28;20059;-82
2021/10/18 16:26:03;;;;;;;14.05;7.32;;;;;;;;;;5061114;28;20399;-82
2021/10/18 16:28:30;;;;;;;12.68;6.95;;;;;;;;;;5060655;28;20143;-82
2021/10/18 16:30:57;;;;;;;11.27;5.60;;;;;;;;;;5065256;28;20301;-82
2021/10/18 16:33:24;;;;;;;8.98;5.45;;;;;;;;;;5064068;28;20048;-82